Time;durP1;ratioP1;P1;durP2;ratioP2;P2;SDS_P1;SDS_P2;PMS_P1;PMS_P2;Temp;Humidity;BMP_temperature;BMP_pressure;BME280_temperature;BME280_humidity;BME280_pressure;Samples;Min_cycle;Max_cycle;Signal;HPM_P1;HPM_P2
2023/12/08 00:02:21;;;;;;;17.17;11.47;;;-2.30;97.40;;;;;;5046211;28;20206;-89
2023/12/08 00:04:48;;;;;;;16.70;11.23;;;-2.30;97.40;;;;;;5048150;28;20194;-89
2023/12/08 00:07:15;;;;;;;17.83;11.43;;;-2.40;97.30;;;;;;5042741;28;20221;-89
2023/12/08 00:09:42;;;;;;;19.33;11.60;;;-2.40;97.40;;;;;;5047397;28;20273;-88
2023/12/08 00:12:09;;;;;;;17.93;10.80;;;-2.40;97.30;;;;;;5044605;28;20215;-89
2023/12/08 00:14:37;;;;;;;16.37;9.77;;;-2.40;97.40;;;;;;5044926;28;20282;-88
2023/12/08 00:17:05;;;;;;;14.87;9.73;;;-2.30;97.30;;;;;;5045532;28;20202;-89
2023/12/08 00:19:32;;;;;;;14.23;9.17;;;-2.30;97.10;;;;;;5050546;28;20193;-89
2023/12/08 00:21:59;;;;;;;13.90;9.87;;;-2.40;97.10;;;;;;5045330;28;20257;-88
2023/12/08 00:24:26;;;;;;;16.07;9.40;;;-2.50;97.10;;;;;;5048707;28;20198;-88
2023/12/08 00:26:53;;;;;;;12.97;7.77;;;-2.60;97.50;;;;;;5045876;28;20571;-89
2023/12/08 00:29:20;;;;;;;12.93;8.60;;;-2.40;97.70;;;;;;5048534;28;20206;-89
2023/12/08 00:31:48;;;;;;;12.33;8.37;;;-2.30;97.60;;;;;;5044866;28;20206;-88
2023/12/08 00:34:16;;;;;;;11.57;7.87;;;-2.10;97.10;;;;;;5046874;28;20205;-88
2023/12/08 00:36:43;;;;;;;12.20;8.23;;;-1.90;96.80;;;;;;5049383;28;20228;-89
2023/12/08 00:39:10;;;;;;;11.63;8.20;;;-1.80;96.30;;;;;;5049698;28;20284;-89
2023/12/08 00:41:36;;;;;;;14.77;7.87;;;-1.80;95.90;;;;;;5057045;28;20201;-88
2023/12/08 00:44:03;;;;;;;12.67;8.20;;;-1.70;95.80;;;;;;5068152;28;20198;-88
2023/12/08 00:46:31;;;;;;;11.20;7.87;;;-1.80;95.80;;;;;;5067696;28;20284;-89
2023/12/08 00:48:59;;;;;;;10.67;7.10;;;-1.70;96.00;;;;;;5063675;28;20208;-89
2023/12/08 00:51:26;;;;;;;11.97;7.77;;;-1.60;95.20;;;;;;5049442;28;20204;-89
2023/12/08 00:53:53;;;;;;;11.23;7.50;;;-1.60;95.10;;;;;;5049239;28;20225;-89
2023/12/08 00:56:20;;;;;;;10.97;7.43;;;-1.60;95.10;;;;;;5047000;28;20216;-89
2023/12/08 00:58:47;;;;;;;10.53;7.20;;;-1.50;94.70;;;;;;5044239;28;20203;-89
2023/12/08 01:01:13;;;;;;;12.63;8.43;;;-1.50;94.50;;;;;;5052894;28;20190;-89
2023/12/08 01:03:40;;;;;;;11.33;8.07;;;-1.60;94.20;;;;;;5045558;28;20202;-89
2023/12/08 01:06:09;;;;;;;14.03;8.10;;;-1.60;94.50;;;;;;5046493;28;20198;-89
2023/12/08 01:08:35;;;;;;;13.00;7.40;;;-1.60;94.40;;;;;;5050517;28;20202;-89
2023/12/08 01:11:02;;;;;;;11.77;7.53;;;-1.80;94.30;;;;;;5047100;28;20202;-88
2023/12/08 01:13:29;;;;;;;10.37;7.10;;;-1.90;94.60;;;;;;5049791;28;20214;-89
2023/12/08 01:15:56;;;;;;;10.63;7.30;;;-1.90;95.00;;;;;;5050941;28;20204;-88
2023/12/08 01:18:23;;;;;;;12.63;7.90;;;-1.90;95.40;;;;;;5048552;28;20198;-88
2023/12/08 01:20:51;;;;;;;11.97;7.93;;;-1.80;95.00;;;;;;5050879;28;20224;-89
2023/12/08 01:23:20;;;;;;;11.97;8.37;;;-1.80;94.80;;;;;;5046204;28;20226;-89
2023/12/08 01:25:46;;;;;;;13.80;8.63;;;-1.80;94.80;;;;;;5052426;28;20202;-89
2023/12/08 01:28:14;;;;;;;13.63;7.63;;;-1.80;94.50;;;;;;5048954;28;20239;-89
2023/12/08 01:30:41;;;;;;;11.50;7.27;;;-1.90;94.80;;;;;;5050135;28;20275;-89
2023/12/08 01:33:08;;;;;;;11.37;7.17;;;-1.80;94.70;;;;;;5045503;28;20694;-89
2023/12/08 01:35:35;;;;;;;12.50;7.60;;;-1.70;94.60;;;;;;5051311;28;20217;-89
2023/12/08 01:38:02;;;;;;;13.40;7.83;;;-1.70;94.30;;;;;;5050421;28;20216;-89
2023/12/08 01:40:30;;;;;;;11.47;8.03;;;-1.90;94.30;;;;;;5049827;28;20571;-89
2023/12/08 01:42:57;;;;;;;11.30;8.00;;;-2.10;95.10;;;;;;5048413;28;20612;-88
2023/12/08 01:45:24;;;;;;;13.20;8.43;;;-2.20;95.20;;;;;;5049938;28;20194;-90
2023/12/08 01:47:51;;;;;;;13.10;7.90;;;-2.30;95.60;;;;;;5051966;28;20674;-89
2023/12/08 01:50:19;;;;;;;13.33;8.30;;;-2.40;96.10;;;;;;5051847;28;20206;-89
2023/12/08 01:52:48;;;;;;;11.90;8.27;;;-2.30;96.50;;;;;;5051231;28;20217;-89
2023/12/08 01:55:15;;;;;;;12.10;8.13;;;-2.30;96.30;;;;;;5048996;28;20211;-89
2023/12/08 01:57:44;;;;;;;11.87;7.70;;;-2.40;96.50;;;;;;5057148;28;20198;-89
2023/12/08 02:00:12;;;;;;;16.73;9.30;;;-2.40;96.60;;;;;;5041479;28;20198;-88
2023/12/08 02:02:39;;;;;;;10.67;8.33;;;-2.40;96.70;;;;;;5058085;28;20206;-89
2023/12/08 02:05:07;;;;;;;13.10;8.77;;;-2.40;96.80;;;;;;5053318;28;20268;-89
2023/12/08 02:07:35;;;;;;;11.53;7.93;;;-2.40;97.00;;;;;;5056918;28;20209;-89
2023/12/08 02:10:02;;;;;;;12.10;8.30;;;-2.40;97.10;;;;;;5056090;28;20646;-89
2023/12/08 02:12:29;;;;;;;11.87;8.00;;;-2.40;96.90;;;;;;5048583;28;20222;-88
2023/12/08 02:14:58;;;;;;;14.73;8.20;;;-2.30;96.80;;;;;;5045779;28;20202;-89
2023/12/08 02:17:31;;;;;;;10.33;7.40;;;-2.20;96.70;;;;;;5052172;28;20211;-89
2023/12/08 02:19:58;;;;;;;12.77;8.40;;;-2.20;96.30;;;;;;5033180;28;20206;-89
2023/12/08 02:22:25;;;;;;;11.80;7.63;;;-2.10;96.50;;;;;;5044368;28;20224;-89
2023/12/08 02:24:53;;;;;;;13.10;7.90;;;-2.00;96.20;;;;;;5044780;28;20201;-89
2023/12/08 02:27:20;;;;;;;13.57;8.10;;;-2.00;96.20;;;;;;5049216;28;20202;-88
2023/12/08 02:29:47;;;;;;;11.53;8.00;;;-2.00;96.20;;;;;;5043263;28;20243;-89
2023/12/08 02:32:22;;;;;;;12.63;8.40;;;-1.70;95.60;;;;;;5044850;28;20205;-89
2023/12/08 02:34:49;;;;;;;10.73;7.87;;;-1.70;94.70;;;;;;5050367;28;20203;-89
2023/12/08 02:37:19;;;;;;;12.27;8.07;;;-1.80;94.70;;;;;;5052525;28;20419;-89
2023/12/08 02:39:48;;;;;;;12.17;8.87;;;-1.90;95.10;;;;;;5053604;28;20761;-89
2023/12/08 02:42:16;;;;;;;11.53;8.10;;;-1.80;95.00;;;;;;5052565;28;20210;-89
2023/12/08 02:44:43;;;;;;;12.70;8.13;;;-1.90;94.90;;;;;;5046847;28;20276;-88
2023/12/08 02:47:10;;;;;;;12.27;8.20;;;-1.90;95.10;;;;;;5050142;28;20213;-89
2023/12/08 02:49:37;;;;;;;10.37;7.67;;;-2.10;95.20;;;;;;5048757;28;20206;-89
2023/12/08 02:52:05;;;;;;;12.53;8.00;;;-2.10;95.50;;;;;;5047412;28;20191;-89
2023/12/08 02:54:31;;;;;;;10.33;7.40;;;-2.10;95.70;;;;;;5043276;28;20219;-89
2023/12/08 02:56:58;;;;;;;11.03;7.57;;;-2.00;95.30;;;;;;5048186;28;20566;-88
2023/12/08 02:59:27;;;;;;;11.87;7.33;;;-2.00;95.20;;;;;;5051285;28;20214;-89
2023/12/08 03:01:54;;;;;;;9.60;6.83;;;-2.00;95.10;;;;;;5046927;28;20201;-89
2023/12/08 03:04:21;;;;;;;9.47;6.97;;;-2.00;95.20;;;;;;5049811;28;20639;-89
2023/12/08 03:06:48;;;;;;;9.13;6.53;;;-2.10;95.40;;;;;;5053395;28;20292;-88
2023/12/08 03:09:15;;;;;;;9.47;6.80;;;-2.10;95.50;;;;;;5052567;28;20248;-89
2023/12/08 03:11:42;;;;;;;9.10;6.87;;;-2.10;95.80;;;;;;5051360;28;20225;-88
2023/12/08 03:14:08;;;;;;;9.70;6.57;;;-2.00;96.00;;;;;;5043307;28;20710;-89
2023/12/08 03:16:36;;;;;;;9.17;6.87;;;-1.90;96.20;;;;;;5047261;28;20259;-89
2023/12/08 03:19:03;;;;;;;9.00;6.47;;;-1.60;95.50;;;;;;5050401;28;20194;-89
2023/12/08 03:21:30;;;;;;;10.43;6.77;;;-1.50;94.70;;;;;;5047769;28;20218;-89
2023/12/08 03:23:57;;;;;;;7.80;6.13;;;-1.60;94.80;;;;;;5049412;28;20206;-89
2023/12/08 03:26:24;;;;;;;8.90;6.33;;;-1.60;94.90;;;;;;5046404;28;20758;-89
2023/12/08 03:28:51;;;;;;;9.10;6.50;;;-1.70;95.00;;;;;;5045380;28;20207;-89
2023/12/08 03:31:23;;;;;;;9.30;6.23;;;-1.80;95.30;;;;;;5045556;28;20200;-88
2023/12/08 03:33:51;;;;;;;9.20;6.10;;;-1.80;95.40;;;;;;5043092;28;20432;-88
2023/12/08 03:36:17;;;;;;;10.50;6.63;;;-1.70;95.20;;;;;;5050365;28;20280;-88
2023/12/08 03:38:44;;;;;;;8.17;5.73;;;-1.70;95.00;;;;;;5033766;28;20280;-88
2023/12/08 03:41:11;;;;;;;9.10;6.20;;;-1.80;95.20;;;;;;5047805;28;20204;-88
2023/12/08 03:43:38;;;;;;;7.27;5.60;;;-1.80;95.60;;;;;;5048527;28;20207;-88
2023/12/08 03:46:07;;;;;;;8.27;5.90;;;-1.80;96.00;;;;;;5046372;28;20202;-87
2023/12/08 03:48:35;;;;;;;8.53;6.13;;;-1.60;96.10;;;;;;5045667;28;20217;-87
2023/12/08 03:51:07;;;;;;;7.90;5.97;;;-1.50;95.70;;;;;;5028003;28;20211;-87
2023/12/08 03:53:34;;;;;;;8.47;5.50;;;-1.40;95.30;;;;;;5048149;28;20642;-86
2023/12/08 03:56:02;;;;;;;6.07;5.13;;;-1.20;95.10;;;;;;5048120;28;20209;-87
2023/12/08 03:58:30;;;;;;;8.73;5.83;;;-1.10;94.60;;;;;;5056804;28;20290;-87
2023/12/08 04:00:57;;;;;;;7.53;5.30;;;-1.00;94.40;;;;;;5063604;28;20260;-86
2023/12/08 04:03:24;;;;;;;9.27;6.07;;;-1.00;93.90;;;;;;5060712;28;20208;-87
2023/12/08 04:05:54;;;;;;;7.47;5.80;;;-1.00;93.80;;;;;;5047790;28;20214;-86
2023/12/08 04:08:24;;;;;;;7.63;5.60;;;-1.10;93.80;;;;;;5046120;28;20605;-86
2023/12/08 04:10:51;;;;;;;8.10;5.97;;;-1.00;93.80;;;;;;5041951;28;20224;-86
2023/12/08 04:13:18;;;;;;;11.17;6.17;;;-0.90;93.20;;;;;;5041076;28;20226;-87
2023/12/08 04:15:45;;;;;;;9.27;6.20;;;-1.00;93.80;;;;;;5048157;28;20201;-86
2023/12/08 04:18:13;;;;;;;8.90;6.17;;;-1.00;93.50;;;;;;5026772;28;20205;-86
2023/12/08 04:20:39;;;;;;;7.77;5.80;;;-0.80;93.40;;;;;;5038925;28;20198;-87
2023/12/08 04:23:09;;;;;;;7.37;6.27;;;-0.80;92.70;;;;;;5045826;28;20267;-87
2023/12/08 04:25:41;;;;;;;7.37;5.70;;;-1.00;92.80;;;;;;5046348;28;20208;-86
2023/12/08 04:28:07;;;;;;;10.57;5.37;;;-1.00;93.30;;;;;;5044116;28;20232;-87
2023/12/08 04:30:35;;;;;;;7.07;5.00;;;-1.00;93.00;;;;;;5042675;28;20206;-86
2023/12/08 04:33:02;;;;;;;8.10;5.57;;;-0.90;92.70;;;;;;5045181;28;20216;-89
2023/12/08 04:35:28;;;;;;;8.23;5.23;;;-1.00;92.50;;;;;;5047183;28;20679;-88
2023/12/08 04:37:55;;;;;;;7.10;5.03;;;-1.00;93.00;;;;;;5040255;28;20281;-88
2023/12/08 04:40:22;;;;;;;7.40;5.10;;;-1.00;92.50;;;;;;5039229;28;20683;-89
2023/12/08 04:42:51;;;;;;;7.70;5.47;;;-1.00;92.60;;;;;;5047163;28;20205;-89
2023/12/08 04:45:17;;;;;;;7.47;5.63;;;-1.10;92.60;;;;;;5050361;28;20303;-88
2023/12/08 04:47:44;;;;;;;8.10;5.20;;;-1.10;92.50;;;;;;5051584;28;20671;-88
2023/12/08 04:50:11;;;;;;;8.40;5.83;;;-1.10;92.80;;;;;;5041579;28;20730;-88
2023/12/08 04:52:38;;;;;;;8.83;5.53;;;-1.10;92.80;;;;;;5046843;28;20614;-88
2023/12/08 04:55:06;;;;;;;7.30;5.20;;;-1.00;92.70;;;;;;5041631;28;20313;-88
2023/12/08 04:57:32;;;;;;;6.23;4.53;;;-1.10;92.60;;;;;;5044490;28;20202;-88
2023/12/08 05:00:01;;;;;;;7.93;4.93;;;-0.90;92.40;;;;;;5046547;28;20199;-86
2023/12/08 05:02:28;;;;;;;7.73;4.90;;;-0.80;92.00;;;;;;5048846;28;20206;-88
2023/12/08 05:04:55;;;;;;;7.60;4.90;;;-0.90;92.00;;;;;;5049227;28;20203;-88
2023/12/08 05:07:21;;;;;;;7.57;5.47;;;-1.00;92.10;;;;;;5042771;28;20672;-88
2023/12/08 05:09:48;;;;;;;8.70;5.53;;;-1.00;92.10;;;;;;5042130;28;20206;-87
2023/12/08 05:12:15;;;;;;;5.60;4.37;;;-1.20;92.30;;;;;;5044436;28;20213;-89
2023/12/08 05:14:42;;;;;;;7.03;5.20;;;-1.30;92.80;;;;;;5025087;28;20253;-88
2023/12/08 05:17:11;;;;;;;6.80;5.30;;;-1.40;93.30;;;;;;5037871;28;20654;-88
2023/12/08 05:19:37;;;;;;;7.33;5.17;;;-1.40;94.00;;;;;;5043689;28;20269;-88
2023/12/08 05:22:05;;;;;;;6.70;5.00;;;-1.50;93.70;;;;;;5045981;28;20212;-89
2023/12/08 05:24:32;;;;;;;6.97;4.63;;;-1.30;93.80;;;;;;5046645;28;20220;-88
2023/12/08 05:26:59;;;;;;;6.57;5.00;;;-1.10;93.50;;;;;;5050347;28;20198;-88
2023/12/08 05:29:26;;;;;;;5.47;4.33;;;-1.20;93.80;;;;;;5051061;28;20201;-88
2023/12/08 05:31:53;;;;;;;7.63;4.63;;;-1.10;93.80;;;;;;5052043;28;20651;-89
2023/12/08 05:34:21;;;;;;;6.27;4.30;;;-0.90;93.40;;;;;;5051858;28;20215;-88
2023/12/08 05:36:48;;;;;;;7.03;4.80;;;-0.80;93.50;;;;;;5051188;28;20205;-89
2023/12/08 05:39:16;;;;;;;5.50;4.00;;;-0.80;93.20;;;;;;5055401;28;20221;-88
2023/12/08 05:41:43;;;;;;;5.17;4.30;;;-0.80;93.50;;;;;;5046718;28;20256;-87
2023/12/08 05:44:10;;;;;;;6.77;4.33;;;-0.90;93.30;;;;;;5050291;28;20197;-89
2023/12/08 05:46:36;;;;;;;6.20;4.27;;;-0.90;93.50;;;;;;5050447;28;20201;-88
2023/12/08 05:49:03;;;;;;;7.00;4.67;;;-0.90;93.50;;;;;;5048213;28;20207;-89
2023/12/08 05:51:32;;;;;;;5.47;4.17;;;-0.80;93.30;;;;;;5052221;28;20202;-89
2023/12/08 05:53:58;;;;;;;6.83;4.90;;;-0.70;93.90;;;;;;5052453;28;20230;-89
2023/12/08 05:56:25;;;;;;;6.00;4.30;;;-0.60;93.30;;;;;;5055803;28;20194;-88
2023/12/08 05:58:52;;;;;;;5.30;4.30;;;-0.30;93.10;;;;;;5048605;28;20204;-89
2023/12/08 06:01:21;;;;;;;7.70;4.50;;;-0.20;92.50;;;;;;5048608;28;20197;-89
2023/12/08 06:03:48;;;;;;;7.17;5.50;;;-0.20;92.20;;;;;;5045639;28;20260;-89
2023/12/08 06:06:16;;;;;;;4.90;3.93;;;-0.20;92.30;;;;;;5049555;28;20236;-89
2023/12/08 06:08:44;;;;;;;6.27;4.70;;;-0.10;91.90;;;;;;5046360;28;20244;-88
2023/12/08 06:11:11;;;;;;;6.47;4.63;;;0.00;91.50;;;;;;5042881;28;20195;-88
2023/12/08 06:13:38;;;;;;;11.93;5.77;;;0.10;91.30;;;;;;5041474;28;20221;-86
2023/12/08 06:16:05;;;;;;;7.10;4.83;;;0.00;91.10;;;;;;5038294;28;20205;-86
2023/12/08 06:18:34;;;;;;;5.63;4.60;;;-0.10;91.50;;;;;;5046443;28;20259;-87
2023/12/08 06:21:01;;;;;;;7.07;4.73;;;-0.30;92.20;;;;;;5045705;28;20632;-86
2023/12/08 06:23:28;;;;;;;6.23;4.97;;;-0.50;92.40;;;;;;5050127;28;20206;-87
2023/12/08 06:25:56;;;;;;;6.77;4.93;;;-0.50;92.40;;;;;;5045456;28;20575;-88
2023/12/08 06:28:23;;;;;;;6.63;4.60;;;-0.60;92.40;;;;;;5043273;28;20202;-87
2023/12/08 06:30:50;;;;;;;7.17;4.80;;;-0.60;92.20;;;;;;5048413;28;20198;-87
2023/12/08 06:33:17;;;;;;;8.50;4.80;;;-0.60;92.10;;;;;;5047480;28;20206;-88
2023/12/08 06:35:44;;;;;;;7.37;4.70;;;-0.60;92.20;;;;;;5047429;28;20231;-86
2023/12/08 06:38:11;;;;;;;6.77;4.67;;;-0.50;92.30;;;;;;5044243;28;20217;-86
2023/12/08 06:40:40;;;;;;;7.67;4.87;;;-0.40;91.70;;;;;;5060175;28;20213;-86
2023/12/08 06:43:08;;;;;;;8.97;5.47;;;-0.50;91.90;;;;;;5061861;28;20202;-89
2023/12/08 06:45:35;;;;;;;9.80;5.07;;;-0.50;92.40;;;;;;5055183;28;20297;-86
2023/12/08 06:48:03;;;;;;;8.90;5.03;;;-0.50;92.70;;;;;;5048914;28;20200;-89
2023/12/08 06:50:30;;;;;;;8.73;5.27;;;-0.30;92.40;;;;;;5047032;28;20211;-89
2023/12/08 06:52:57;;;;;;;6.83;5.03;;;-0.20;91.90;;;;;;5048338;28;20251;-89
2023/12/08 06:55:25;;;;;;;7.83;5.90;;;-0.10;91.70;;;;;;5049042;28;20311;-89
2023/12/08 06:57:51;;;;;;;10.67;5.63;;;-0.10;91.70;;;;;;5046628;28;20292;-89
2023/12/08 07:00:20;;;;;;;8.37;6.13;;;-0.20;92.00;;;;;;5046006;28;20468;-88
2023/12/08 07:02:47;;;;;;;10.07;5.97;;;-0.30;92.40;;;;;;5047615;28;20200;-89
2023/12/08 07:05:19;;;;;;;11.07;6.37;;;-0.30;92.90;;;;;;5050102;28;20232;-90
2023/12/08 07:07:46;;;;;;;8.53;5.93;;;-0.30;92.80;;;;;;5049189;28;20205;-88
2023/12/08 07:10:14;;;;;;;8.10;5.97;;;-0.40;92.80;;;;;;5047321;28;20290;-89
2023/12/08 07:12:42;;;;;;;7.90;6.00;;;-0.20;92.90;;;;;;5052539;28;20208;-89
2023/12/08 07:15:09;;;;;;;11.70;6.30;;;-0.10;92.50;;;;;;5059382;28;20245;-87
2023/12/08 07:17:38;;;;;;;9.60;6.20;;;0.10;92.60;;;;;;5061393;28;20211;-87
2023/12/08 07:20:08;;;;;;;8.83;6.23;;;0.20;92.00;;;;;;5063386;28;20194;-89
2023/12/08 07:22:35;;;;;;;13.43;6.50;;;0.30;92.30;;;;;;5050012;28;20940;-86
2023/12/08 07:25:03;;;;;;;15.60;9.43;;;0.30;91.80;;;;;;5055805;28;20199;-89
2023/12/08 07:27:30;;;;;;;13.27;7.20;;;0.40;92.90;;;;;;5051520;28;20205;-89
2023/12/08 07:29:57;;;;;;;8.57;6.67;;;0.50;91.80;;;;;;5059589;28;20665;-88
2023/12/08 07:32:24;;;;;;;11.37;7.47;;;0.40;91.40;;;;;;5052598;28;20209;-89
2023/12/08 07:34:52;;;;;;;10.60;7.10;;;0.40;91.30;;;;;;5051420;28;20218;-88
2023/12/08 07:37:19;;;;;;;12.50;7.37;;;0.20;91.60;;;;;;5046553;28;20268;-89
2023/12/08 07:39:46;;;;;;;11.13;7.10;;;0.30;91.70;;;;;;5034938;28;20209;-88
2023/12/08 07:42:13;;;;;;;13.70;7.10;;;0.50;91.40;;;;;;5048579;28;20209;-89
2023/12/08 07:44:40;;;;;;;10.07;7.00;;;0.60;91.50;;;;;;5046600;28;20571;-89
2023/12/08 07:47:07;;;;;;;14.13;7.27;;;0.70;91.20;;;;;;5046270;28;20202;-88
2023/12/08 07:49:34;;;;;;;8.93;6.63;;;0.80;90.80;;;;;;5053899;28;20194;-89
2023/12/08 07:52:03;;;;;;;10.67;7.17;;;0.80;91.00;;;;;;5043787;28;20194;-89
2023/12/08 07:54:32;;;;;;;8.90;6.63;;;1.00;91.10;;;;;;5052313;28;20228;-89
2023/12/08 07:56:59;;;;;;;16.20;8.47;;;1.10;90.20;;;;;;5039947;28;20347;-89
2023/12/08 07:59:26;;;;;;;11.43;6.83;;;1.20;90.20;;;;;;5051392;28;20198;-89
2023/12/08 08:01:53;;;;;;;11.77;6.97;;;1.30;89.30;;;;;;5047357;28;20243;-90
2023/12/08 08:04:20;;;;;;;11.50;6.87;;;1.50;87.70;;;;;;5052434;28;20194;-91
2023/12/08 08:06:47;;;;;;;10.57;6.43;;;1.40;88.40;;;;;;5054576;28;20211;-90
2023/12/08 08:09:17;;;;;;;9.83;6.97;;;1.30;89.10;;;;;;5060289;28;20205;-90
2023/12/08 08:11:44;;;;;;;11.40;7.70;;;1.30;88.40;;;;;;5057253;28;20225;-89
2023/12/08 08:14:11;;;;;;;28.67;16.80;;;1.50;88.20;;;;;;5062341;28;20193;-90
2023/12/08 08:16:38;;;;;;;26.23;16.87;;;1.80;91.90;;;;;;5062137;28;20213;-90
2023/12/08 08:19:05;;;;;;;10.93;7.20;;;2.70;93.10;;;;;;5055486;28;20197;-90
2023/12/08 08:21:32;;;;;;;12.93;7.93;;;2.60;84.40;;;;;;5046797;28;20228;-90
2023/12/08 08:23:58;;;;;;;10.13;7.30;;;2.50;83.20;;;;;;5050451;28;20650;-90
2023/12/08 08:26:27;;;;;;;13.07;8.70;;;2.40;82.00;;;;;;5045561;28;20205;-91
2023/12/08 08:28:54;;;;;;;13.80;8.30;;;2.30;82.90;;;;;;5045198;28;20220;-91
2023/12/08 08:31:21;;;;;;;13.37;8.23;;;2.20;83.60;;;;;;5053160;28;20275;-90
2023/12/08 08:33:48;;;;;;;12.87;8.00;;;2.00;84.50;;;;;;5048932;28;20197;-91
2023/12/08 08:36:15;;;;;;;11.37;7.90;;;1.90;87.10;;;;;;5055412;28;20221;-90
2023/12/08 08:38:42;;;;;;;11.90;8.30;;;2.00;86.60;;;;;;5048736;28;20197;-90
2023/12/08 08:41:09;;;;;;;14.67;7.57;;;2.30;84.80;;;;;;5046103;28;20198;-90
2023/12/08 08:43:38;;;;;;;12.63;8.00;;;2.30;84.10;;;;;;5047372;28;20208;-91
2023/12/08 08:46:04;;;;;;;10.10;7.03;;;2.40;83.60;;;;;;5047816;28;20209;-90
2023/12/08 08:48:31;;;;;;;10.63;7.43;;;2.30;84.40;;;;;;5046544;28;20217;-88
2023/12/08 08:50:58;;;;;;;11.13;7.70;;;2.30;82.80;;;;;;5051069;28;20422;-89
2023/12/08 08:53:26;;;;;;;16.50;7.80;;;2.20;82.30;;;;;;5049912;28;20206;-90
2023/12/08 08:55:53;;;;;;;9.90;7.50;;;2.10;83.00;;;;;;5055399;28;20218;-91
2023/12/08 08:58:20;;;;;;;11.07;6.97;;;2.20;84.00;;;;;;5053153;28;20222;-91
2023/12/08 09:00:48;;;;;;;10.90;7.60;;;2.20;82.40;;;;;;5052901;28;20293;-89
2023/12/08 09:03:15;;;;;;;8.63;6.70;;;2.20;84.20;;;;;;5061234;28;20213;-91
2023/12/08 09:05:42;;;;;;;32.43;22.60;;;2.20;83.40;;;;;;5060471;28;20208;-91
2023/12/08 09:08:09;;;;;;;20.47;13.37;;;2.30;89.40;;;;;;5057864;28;20202;-90
2023/12/08 09:10:37;;;;;;;12.00;7.83;;;2.90;87.70;;;;;;5057845;28;20200;-91
2023/12/08 09:13:05;;;;;;;28.40;19.90;;;2.80;82.50;;;;;;5058291;28;20619;-90
2023/12/08 09:15:32;;;;;;;21.87;14.63;;;3.10;88.20;;;;;;5058507;28;20313;-91
2023/12/08 09:18:00;;;;;;;11.40;8.23;;;3.80;85.10;;;;;;5058155;28;21036;-91
2023/12/08 09:20:27;;;;;;;12.83;9.40;;;3.80;70.80;;;;;;5055141;28;20205;-91
2023/12/08 09:22:54;;;;;;;18.57;13.83;;;3.90;78.60;;;;;;5054481;28;20247;-88
2023/12/08 09:25:21;;;;;;;18.67;11.90;;;4.20;87.10;;;;;;5052269;28;20206;-90
2023/12/08 09:27:48;;;;;;;17.70;11.83;;;4.40;84.80;;;;;;5055405;28;20205;-90
2023/12/08 09:30:15;;;;;;;20.53;12.83;;;4.50;78.60;;;;;;5053375;28;20233;-92
2023/12/08 09:32:42;;;;;;;15.87;10.87;;;4.50;82.20;;;;;;5054268;28;20216;-93
2023/12/08 09:35:10;;;;;;;8.13;6.53;;;4.60;78.10;;;;;;5049926;28;20242;-93
2023/12/08 09:37:37;;;;;;;9.13;6.90;;;4.20;59.40;;;;;;5053993;28;20217;-93
2023/12/08 09:40:05;;;;;;;9.83;6.67;;;3.80;64.40;;;;;;5038322;28;20198;-93
2023/12/08 09:42:37;;;;;;;10.03;6.70;;;3.40;68.10;;;;;;5050024;28;20198;-93
2023/12/08 09:45:05;;;;;;;9.37;7.10;;;3.10;67.80;;;;;;5052217;28;20210;-92
2023/12/08 09:47:35;;;;;;;9.50;7.10;;;2.90;72.40;;;;;;5050340;28;20202;-92
2023/12/08 09:50:03;;;;;;;12.00;6.97;;;2.70;75.10;;;;;;5048207;28;20202;-92
2023/12/08 09:52:33;;;;;;;9.40;6.93;;;2.70;76.60;;;;;;5047796;28;20233;-92
2023/12/08 09:55:01;;;;;;;10.70;7.27;;;2.80;75.90;;;;;;5051144;28;20218;-92
2023/12/08 09:57:29;;;;;;;11.77;6.70;;;2.90;75.90;;;;;;5055063;28;20195;-90
2023/12/08 09:59:59;;;;;;;8.73;7.10;;;2.90;76.30;;;;;;5050718;28;20194;-93
2023/12/08 10:02:26;;;;;;;12.93;7.23;;;2.90;76.70;;;;;;5055141;28;20227;-91
2023/12/08 10:04:53;;;;;;;11.13;7.23;;;2.80;76.70;;;;;;5053851;28;20198;-92
2023/12/08 10:07:21;;;;;;;10.10;7.60;;;2.80;76.70;;;;;;5059267;28;20208;-91
2023/12/08 10:09:50;;;;;;;12.37;7.90;;;2.70;78.10;;;;;;5053870;28;20202;-92
2023/12/08 10:12:17;;;;;;;11.53;7.97;;;2.80;78.50;;;;;;5053886;28;20256;-93
2023/12/08 10:14:52;;;;;;;10.30;8.00;;;3.10;78.50;;;;;;5053277;28;20206;-92
2023/12/08 10:17:20;;;;;;;12.57;8.10;;;3.20;76.20;;;;;;5055404;28;20202;-93
2023/12/08 10:19:47;;;;;;;12.87;7.83;;;3.30;75.20;;;;;;5058703;28;20198;-92
2023/12/08 10:22:14;;;;;;;10.53;7.30;;;3.30;75.40;;;;;;5051538;28;20218;-93
2023/12/08 10:24:42;;;;;;;9.77;7.40;;;3.40;70.80;;;;;;5047413;28;20201;-91
2023/12/08 10:27:10;;;;;;;10.53;6.93;;;3.30;73.30;;;;;;5053782;28;20195;-93
2023/12/08 10:29:37;;;;;;;11.53;7.20;;;3.50;72.70;;;;;;5051233;28;20198;-93
2023/12/08 10:32:05;;;;;;;9.70;7.13;;;3.60;68.30;;;;;;5058673;28;20198;-92
2023/12/08 10:34:32;;;;;;;12.07;7.50;;;3.50;70.10;;;;;;5060913;28;20210;-91
2023/12/08 10:36:59;;;;;;;11.27;7.60;;;3.70;69.20;;;;;;5057885;28;20227;-90
2023/12/08 10:39:26;;;;;;;13.77;7.77;;;3.70;68.50;;;;;;5061563;28;20307;-92
2023/12/08 10:41:53;;;;;;;10.70;8.10;;;3.80;68.50;;;;;;5055546;28;20202;-89
2023/12/08 10:44:22;;;;;;;11.40;7.27;;;3.30;69.20;;;;;;5053217;28;20209;-91
2023/12/08 10:46:49;;;;;;;11.10;7.90;;;3.40;71.60;;;;;;5053744;28;20204;-91
2023/12/08 10:49:19;;;;;;;10.43;7.40;;;3.30;73.90;;;;;;5051646;28;20201;-91
2023/12/08 10:51:47;;;;;;;10.63;7.10;;;3.10;74.30;;;;;;5058746;28;20209;-91
2023/12/08 10:54:16;;;;;;;10.37;6.60;;;3.30;72.30;;;;;;5057725;28;20241;-91
2023/12/08 10:56:44;;;;;;;11.33;7.53;;;3.20;74.40;;;;;;5053475;28;20225;-90
2023/12/08 10:59:12;;;;;;;11.27;7.50;;;3.40;73.00;;;;;;5049033;28;20198;-91
2023/12/08 11:01:42;;;;;;;12.80;7.83;;;3.30;74.30;;;;;;5054434;28;20226;-91
2023/12/08 11:04:12;;;;;;;14.17;8.30;;;3.30;73.40;;;;;;5055035;28;20206;-92
2023/12/08 11:06:43;;;;;;;11.17;8.10;;;3.00;76.00;;;;;;5062539;28;20233;-89
2023/12/08 11:09:15;;;;;;;12.17;7.83;;;3.00;77.80;;;;;;5064075;28;20204;-92
2023/12/08 11:11:47;;;;;;;12.40;7.97;;;3.30;77.00;;;;;;5066707;22;20241;-92
2023/12/08 11:14:21;;;;;;;11.17;7.93;;;3.60;75.50;;;;;;5033661;28;20236;-94
2023/12/08 11:17:00;;;;;;;13.40;9.13;;;3.80;75.00;;;;;;5030517;28;20229;-91
2023/12/08 11:19:27;;;;;;;11.10;8.10;;;3.80;75.50;;;;;;5031736;28;20268;-93
2023/12/08 11:21:55;;;;;;;12.67;8.63;;;3.70;75.10;;;;;;5032474;28;20219;-92
2023/12/08 11:24:22;;;;;;;13.10;8.40;;;3.50;73.30;;;;;;5040001;28;20202;-93
2023/12/08 11:26:56;;;;;;;12.47;9.13;;;3.50;75.20;;;;;;5036985;28;20198;-92
2023/12/08 11:29:33;;;;;;;12.20;8.97;;;3.70;75.60;;;;;;5035658;28;20260;-91
2023/12/08 11:32:07;;;;;;;12.87;9.33;;;3.70;75.10;;;;;;5036005;28;20194;-93
2023/12/08 11:34:38;;;;;;;12.57;8.87;;;3.70;74.70;;;;;;5036320;28;20207;-94
2023/12/08 11:37:08;;;;;;;10.97;8.20;;;3.50;73.80;;;;;;5037133;28;20213;-93
2023/12/08 11:39:44;;;;;;;12.73;8.13;;;3.40;75.40;;;;;;5039175;28;20224;-93
2023/12/08 11:42:13;;;;;;;13.90;8.60;;;3.60;76.00;;;;;;5032656;28;20564;-92
2023/12/08 11:44:42;;;;;;;10.23;7.90;;;3.80;74.00;;;;;;5196073;22;20297;-94
2023/12/08 11:47:15;;;;;;;9.60;7.53;;;4.10;70.60;;;;;;5046860;28;20206;-93
2023/12/08 11:49:44;;;;;;;13.40;7.97;;;4.20;68.90;;;;;;5040909;28;20198;-92
2023/12/08 11:52:25;;;;;;;11.73;8.43;;;4.30;69.00;;;;;;5064392;28;20194;-92
2023/12/08 11:55:07;;;;;;;10.87;7.57;;;4.50;70.70;;;;;;5157508;22;20620;-93
2023/12/08 11:57:36;;;;;;;14.00;8.00;;;4.50;68.20;;;;;;5022318;28;20306;-94
2023/12/08 12:00:07;;;;;;;11.77;7.73;;;4.10;68.80;;;;;;5021175;28;20239;-94
2023/12/08 12:02:35;;;;;;;10.67;7.27;;;4.00;72.90;;;;;;5019656;28;20199;-95
2023/12/08 12:05:04;;;;;;;8.77;7.13;;;4.30;70.20;;;;;;5019963;28;20290;-93
2023/12/08 12:07:32;;;;;;;10.63;7.33;;;4.20;68.90;;;;;;5023404;28;21048;-94
2023/12/08 12:10:00;;;;;;;10.77;7.50;;;4.10;71.70;;;;;;5020018;28;20209;-96
2023/12/08 12:12:30;;;;;;;12.07;7.67;;;3.80;73.50;;;;;;5016827;28;20195;-96
2023/12/08 12:14:57;;;;;;;11.50;7.47;;;3.70;75.90;;;;;;5012072;28;20211;-95
2023/12/08 12:17:25;;;;;;;11.60;7.70;;;3.90;76.50;;;;;;5017581;28;20227;-95
2023/12/08 12:19:53;;;;;;;10.37;7.27;;;3.90;76.30;;;;;;5016138;28;20208;-95
2023/12/08 12:22:20;;;;;;;10.70;7.17;;;4.00;76.60;;;;;;5015911;28;20219;-93
2023/12/08 12:24:48;;;;;;;12.30;6.83;;;4.10;76.00;;;;;;5010228;28;20191;-95
2023/12/08 12:27:15;;;;;;;8.20;5.73;;;4.30;72.30;;;;;;5009968;28;20203;-94
2023/12/08 12:29:42;;;;;;;9.07;6.23;;;4.30;69.10;;;;;;5011923;28;20215;-90
2023/12/08 12:32:09;;;;;;;8.87;6.03;;;4.40;69.10;;;;;;4989821;28;20207;-92
2023/12/08 12:34:37;;;;;;;8.17;6.10;;;4.30;69.00;;;;;;5004755;28;20200;-93
2023/12/08 12:55:36;;;;;;;10.57;7.10;;;4.40;73.20;;;;;;5881035;22;20215;-93
2023/12/08 13:00:35;;;;;;;9.83;7.33;;;4.50;71.00;;;;;;5027533;28;20488;-96
2023/12/08 13:03:09;;;;;;;9.50;7.43;;;4.50;71.00;;;;;;5024986;28;20213;-95
2023/12/08 13:05:45;;;;;;;8.70;6.50;;;4.50;73.30;;;;;;5020543;28;20229;-93
2023/12/08 13:08:12;;;;;;;10.85;8.32;;;4.50;74.00;;;;;;5004077;28;20203;-95
2023/12/08 13:10:40;;;;;;;10.20;7.00;;;4.50;74.10;;;;;;5021650;28;20214;-96